createdAt,value
2018-05-31T00:03:00.019Z,65.01
2018-05-31T00:06:06.165Z,65.37
2018-05-31T00:09:12.103Z,64.67
2018-05-31T00:12:18.010Z,64.78
2018-05-31T00:15:23.462Z,65.07
2018-05-31T00:18:28.927Z,65.06
2018-05-31T00:21:34.973Z,65.24
2018-05-31T00:24:41.106Z,65.32
2018-05-31T00:27:47.404Z,65.00
2018-05-31T00:30:52.819Z,65.30
2018-05-31T00:33:58.015Z,65.27
2018-05-31T00:37:04.858Z,65.23
2018-05-31T00:40:10.715Z,65.34
2018-05-31T00:43:16.966Z,65.16
2018-05-31T00:46:22.100Z,65.58
2018-05-31T00:49:27.289Z,65.45
2018-05-31T00:52:32.491Z,65.47
2018-05-31T00:55:49.555Z,65.47
2018-05-31T00:58:55.346Z,65.66
2018-05-31T01:02:01.592Z,65.63
2018-05-31T01:05:07.019Z,66.22
2018-05-31T01:08:12.854Z,65.88
2018-05-31T01:11:18.440Z,66.22
2018-05-31T01:14:24.498Z,67.10
2018-05-31T01:17:31.247Z,66.34
2018-05-31T01:20:36.423Z,66.15
2018-05-31T01:23:42.458Z,66.51
2018-05-31T01:26:48.558Z,66.98
2018-05-31T01:29:54.831Z,66.56
2018-05-31T01:33:01.086Z,66.76
2018-05-31T01:36:07.226Z,67.12
2018-05-31T01:39:20.441Z,66.98
2018-05-31T01:42:26.386Z,66.86
2018-05-31T01:45:32.333Z,66.54
2018-05-31T01:48:38.562Z,67.23
2018-05-31T01:51:44.812Z,67.22
2018-05-31T01:54:51.212Z,67.12
2018-05-31T01:57:56.437Z,67.35
2018-05-31T02:01:02.760Z,67.42
2018-05-31T02:04:08.789Z,67.75
2018-05-31T02:07:14.200Z,67.70
2018-05-31T02:10:19.927Z,67.50
2018-05-31T02:13:25.068Z,68.03
2018-05-31T02:16:30.483Z,67.74
2018-05-31T02:19:36.599Z,68.21
2018-05-31T02:22:42.628Z,68.11
2018-05-31T02:25:48.753Z,68.06
2018-05-31T02:28:54.861Z,68.12
2018-05-31T02:32:00.961Z,67.87
2018-05-31T02:35:07.297Z,67.79
2018-05-31T02:38:12.708Z,67.97
2018-05-31T02:41:18.114Z,68.73
2018-05-31T02:44:23.585Z,67.91
2018-05-31T02:47:29.911Z,67.86
2018-05-31T02:50:34.455Z,68.14
2018-05-31T02:53:40.809Z,67.96
2018-05-31T02:56:47.033Z,68.22
2018-05-31T02:59:52.975Z,68.20
2018-05-31T03:02:58.396Z,67.96
2018-05-31T03:06:04.624Z,68.28
2018-05-31T03:09:10.552Z,68.20
2018-05-31T03:12:15.980Z,69.20
2018-05-31T03:15:22.023Z,68.26
2018-05-31T03:18:27.442Z,68.69
2018-05-31T03:21:32.868Z,69.20
2018-05-31T03:24:39.317Z,69.05
2018-05-31T03:27:45.113Z,69.25
2018-05-31T03:30:51.108Z,69.02
2018-05-31T03:33:56.627Z,68.90
2018-05-31T03:37:03.042Z,69.07
2018-05-31T03:40:08.967Z,69.14
2018-05-31T03:43:14.404Z,69.16
2018-05-31T03:46:20.491Z,69.22
2018-05-31T03:49:26.444Z,70.03
2018-05-31T03:52:31.623Z,69.71
2018-05-31T03:55:37.034Z,69.44
2018-05-31T03:58:42.445Z,69.37
2018-05-31T04:01:48.828Z,68.99
2018-05-31T04:04:55.059Z,69.29
2018-05-31T04:08:01.391Z,68.76
2018-05-31T04:11:07.324Z,68.83
2018-05-31T04:14:12.737Z,68.64
2018-05-31T04:17:18.964Z,68.90
2018-05-31T04:20:25.073Z,68.54
2018-05-31T04:23:31.040Z,68.53
2018-05-31T04:26:37.264Z,68.75
2018-05-31T04:29:43.327Z,68.48
2018-05-31T04:32:48.721Z,68.58
2018-05-31T04:35:54.137Z,68.23
2018-05-31T04:38:59.575Z,68.10
2018-05-31T04:42:05.376Z,68.02
2018-05-31T04:45:11.453Z,68.21
2018-05-31T04:48:17.373Z,68.39
2018-05-31T04:51:23.703Z,68.34
2018-05-31T04:54:28.682Z,68.29
2018-05-31T04:57:34.090Z,68.44
2018-05-31T05:00:39.512Z,68.23
2018-05-31T05:03:44.920Z,68.15
2018-05-31T05:06:50.344Z,68.22
2018-05-31T05:09:55.745Z,68.06
2018-05-31T05:13:01.996Z,68.12
2018-05-31T05:16:07.202Z,68.84
2018-05-31T05:19:12.377Z,68.63
2018-05-31T05:22:17.784Z,68.64
2018-05-31T05:25:22.872Z,68.37
2018-05-31T05:28:29.191Z,68.17
2018-05-31T05:31:35.732Z,68.05
2018-05-31T05:34:42.050Z,67.99
2018-05-31T05:37:47.508Z,67.95
2018-05-31T05:40:52.680Z,68.13
2018-05-31T05:43:58.106Z,67.89
2018-05-31T05:47:04.155Z,68.00
2018-05-31T05:50:09.442Z,68.30
2018-05-31T05:53:15.417Z,67.91
2018-05-31T05:56:21.557Z,67.88
2018-05-31T05:59:27.291Z,68.33
2018-05-31T06:02:33.665Z,68.21
2018-05-31T06:05:39.612Z,67.96
2018-05-31T06:08:45.358Z,67.90
2018-05-31T06:11:50.748Z,68.11
2018-05-31T06:14:56.883Z,68.14
2018-05-31T06:18:03.100Z,68.02
2018-05-31T06:21:09.319Z,68.44
2018-05-31T06:24:14.443Z,68.26
2018-05-31T06:27:19.852Z,68.07
2018-05-31T06:30:25.267Z,67.79
2018-05-31T06:33:31.476Z,67.86
2018-05-31T06:36:37.508Z,67.90
2018-05-31T06:39:42.741Z,67.75
2018-05-31T06:42:48.385Z,67.74
2018-05-31T06:45:53.326Z,67.87
2018-05-31T06:48:58.454Z,67.88
2018-05-31T06:52:03.812Z,67.79
2018-05-31T06:55:10.351Z,67.97
2018-05-31T06:58:15.756Z,68.10
2018-05-31T07:01:21.449Z,67.98
2018-05-31T07:04:27.637Z,68.06
2018-05-31T07:07:33.962Z,67.92
2018-05-31T07:10:39.593Z,68.44
2018-05-31T07:13:45.583Z,68.72
2018-05-31T07:16:50.811Z,68.24
2018-05-31T07:19:56.033Z,68.03
2018-05-31T07:23:01.930Z,68.14
2018-05-31T07:26:08.056Z,68.05
2018-05-31T07:29:13.668Z,68.05
2018-05-31T07:32:18.887Z,68.07
2018-05-31T07:35:25.229Z,67.95
2018-05-31T07:38:31.336Z,67.92
2018-05-31T07:41:37.383Z,68.44
2018-05-31T07:44:43.714Z,67.92
2018-05-31T07:47:48.660Z,67.98
2018-05-31T07:50:53.589Z,68.11
2018-05-31T07:53:59.213Z,68.03
2018-05-31T07:57:05.357Z,67.85
2018-05-31T08:00:10.860Z,67.87
2018-05-31T08:03:16.905Z,67.93
2018-05-31T08:06:22.116Z,67.84
2018-05-31T08:09:27.748Z,67.58
2018-05-31T08:12:33.641Z,67.87
2018-05-31T08:15:40.393Z,67.53
2018-05-31T08:18:46.039Z,67.70
2018-05-31T08:21:51.886Z,67.82
2018-05-31T08:24:57.115Z,67.42
2018-05-31T08:28:02.340Z,67.80
2018-05-31T08:31:07.556Z,68.00
2018-05-31T08:34:12.769Z,67.92
2018-05-31T08:37:18.568Z,67.35
2018-05-31T08:40:23.573Z,67.08
2018-05-31T08:43:28.509Z,67.05
2018-05-31T08:46:33.969Z,67.17
2018-05-31T08:49:39.191Z,67.03
2018-05-31T08:52:45.332Z,66.72
2018-05-31T08:55:50.289Z,66.87
2018-05-31T08:58:56.633Z,66.88
2018-05-31T09:02:01.858Z,66.60
2018-05-31T09:05:06.930Z,66.72
2018-05-31T09:08:12.984Z,66.45
2018-05-31T09:11:17.866Z,66.41
2018-05-31T09:14:23.799Z,66.37
2018-05-31T09:17:29.020Z,66.16
2018-05-31T09:20:34.940Z,65.96
2018-05-31T09:23:41.073Z,65.63
2018-05-31T09:26:46.717Z,65.49
2018-05-31T09:29:52.778Z,65.38
2018-05-31T09:32:58.001Z,65.14
2018-05-31T09:36:04.124Z,64.91
2018-05-31T09:39:09.757Z,64.67
2018-05-31T09:42:14.683Z,64.42
2018-05-31T09:45:19.896Z,64.27
2018-05-31T09:48:25.512Z,63.99
2018-05-31T09:51:31.636Z,63.58
2018-05-31T09:54:37.769Z,63.18
2018-05-31T09:57:42.712Z,63.09
2018-05-31T10:00:47.916Z,61.97
2018-05-31T10:03:53.566Z,60.97
2018-05-31T10:06:58.975Z,61.28
2018-05-31T10:10:03.940Z,61.33
2018-05-31T10:13:09.421Z,61.26
2018-05-31T10:16:15.060Z,61.48
2018-05-31T10:19:20.263Z,61.19
2018-05-31T10:22:26.497Z,61.09
2018-05-31T10:25:32.032Z,60.85
2018-05-31T10:28:37.780Z,60.94
2018-05-31T10:31:43.805Z,60.97
2018-05-31T10:34:50.057Z,60.68
2018-05-31T10:37:55.255Z,60.46
2018-05-31T10:41:00.707Z,60.32
2018-05-31T10:44:05.891Z,60.33
2018-05-31T10:47:11.035Z,60.20
2018-05-31T10:50:16.765Z,60.08
2018-05-31T10:53:22.900Z,60.21
2018-05-31T10:56:27.841Z,59.72
2018-05-31T10:59:33.049Z,59.66
2018-05-31T11:02:39.192Z,59.43
2018-05-31T11:05:44.410Z,59.22
2018-05-31T11:08:50.067Z,59.04
2018-05-31T11:11:55.991Z,59.03
2018-05-31T11:15:02.252Z,58.75
2018-05-31T11:18:07.582Z,58.81
2018-05-31T11:21:13.740Z,58.74
2018-05-31T11:24:19.360Z,58.71
2018-05-31T11:27:24.599Z,58.78
2018-05-31T11:30:29.800Z,58.67
2018-05-31T11:33:35.020Z,58.55
2018-05-31T11:36:40.402Z,58.41
2018-05-31T11:39:45.607Z,58.45
2018-05-31T11:42:50.819Z,58.38
2018-05-31T11:45:56.078Z,58.06
2018-05-31T11:49:02.203Z,58.23
2018-05-31T11:52:07.835Z,58.15
2018-05-31T11:55:13.982Z,58.20
2018-05-31T11:58:19.593Z,58.17
2018-05-31T12:01:25.285Z,58.12
2018-05-31T12:04:30.911Z,57.88
2018-05-31T12:07:37.024Z,58.00
2018-05-31T12:10:42.997Z,57.72
2018-05-31T12:13:48.995Z,57.71
2018-05-31T12:16:54.833Z,57.72
2018-05-31T12:20:00.961Z,57.43
2018-05-31T12:23:06.973Z,57.42
2018-05-31T12:26:13.123Z,57.34
2018-05-31T12:29:19.381Z,57.22
2018-05-31T12:32:24.993Z,57.19
2018-05-31T12:35:31.034Z,57.11
2018-05-31T12:38:36.260Z,56.79
2018-05-31T12:41:41.608Z,56.82
2018-05-31T12:44:46.536Z,57.04
2018-05-31T12:47:53.590Z,56.58
2018-05-31T12:50:59.210Z,56.80
2018-05-31T12:54:04.449Z,56.72
2018-05-31T12:57:10.129Z,56.41
2018-05-31T13:00:15.340Z,56.47
2018-05-31T13:03:20.273Z,56.33
2018-05-31T13:06:25.472Z,56.13
2018-05-31T13:09:30.689Z,56.12
2018-05-31T13:12:36.926Z,55.91
2018-05-31T13:15:42.943Z,56.05
2018-05-31T13:18:48.962Z,55.83
2018-05-31T13:21:55.084Z,56.05
2018-05-31T13:25:00.283Z,55.93
2018-05-31T13:28:06.315Z,56.01
2018-05-31T13:31:13.746Z,55.35
2018-05-31T13:34:19.650Z,55.39
2018-05-31T13:37:25.480Z,55.58
2018-05-31T13:40:31.329Z,55.56
2018-05-31T13:43:36.531Z,55.06
2018-05-31T13:46:42.158Z,55.09
2018-05-31T13:49:47.095Z,55.00
2018-05-31T13:52:53.214Z,54.60
2018-05-31T13:55:58.997Z,54.26
2018-05-31T13:59:04.054Z,54.31
2018-05-31T14:02:10.004Z,54.19
2018-05-31T14:05:15.833Z,54.15
2018-05-31T14:08:21.046Z,54.10
2018-05-31T14:11:26.015Z,53.93
2018-05-31T14:14:31.348Z,53.94
2018-05-31T14:17:36.564Z,54.37
2018-05-31T14:20:41.846Z,54.10
2018-05-31T14:23:47.013Z,54.45
2018-05-31T14:26:52.644Z,54.30
2018-05-31T14:29:58.768Z,54.17
2018-05-31T14:33:03.994Z,54.28
2018-05-31T14:36:10.069Z,54.41
2018-05-31T14:39:16.188Z,54.25
2018-05-31T14:42:22.113Z,53.94
2018-05-31T14:45:27.836Z,53.88
2018-05-31T14:48:34.136Z,54.22
2018-05-31T14:51:39.932Z,54.30
2018-05-31T14:54:45.212Z,54.11
2018-05-31T14:57:50.438Z,53.97
2018-05-31T15:00:56.562Z,54.10
2018-05-31T15:04:02.241Z,54.59
2018-05-31T15:07:08.421Z,54.28
2018-05-31T15:10:14.534Z,54.32
2018-05-31T15:13:20.657Z,54.66
2018-05-31T15:16:26.252Z,54.45
2018-05-31T15:19:31.476Z,53.63
2018-05-31T15:22:36.672Z,53.51
2018-05-31T15:25:42.844Z,53.63
2018-05-31T15:28:48.953Z,54.15
2018-05-31T15:31:54.584Z,54.16
2018-05-31T15:35:00.659Z,53.49
2018-05-31T15:38:05.869Z,53.46
2018-05-31T15:41:11.104Z,54.11
2018-05-31T15:44:16.333Z,54.13
2018-05-31T15:47:22.197Z,54.27
2018-05-31T15:50:28.346Z,53.96
2018-05-31T15:53:34.254Z,53.95
2018-05-31T15:56:40.225Z,54.22
2018-05-31T15:59:45.769Z,53.67
2018-05-31T16:02:51.564Z,53.42
2018-05-31T16:05:57.739Z,53.09
2018-05-31T16:09:02.734Z,53.59
2018-05-31T16:12:08.836Z,51.91
2018-05-31T16:15:16.420Z,53.12
2018-05-31T16:18:22.227Z,53.79
2018-05-31T16:21:27.141Z,53.42
2018-05-31T16:24:33.392Z,53.70
2018-05-31T16:27:39.290Z,53.72
2018-05-31T16:30:45.248Z,54.09
2018-05-31T16:33:51.529Z,52.88
2018-05-31T16:36:57.427Z,53.41
2018-05-31T16:40:02.717Z,53.31
2018-05-31T16:43:07.635Z,53.71
2018-05-31T16:46:13.336Z,53.07
2018-05-31T16:49:19.604Z,53.08
2018-05-31T16:52:25.511Z,53.70
2018-05-31T16:55:31.696Z,53.87
2018-05-31T16:58:36.911Z,53.53
2018-05-31T17:01:42.139Z,53.28
2018-05-31T17:04:48.402Z,53.30
2018-05-31T17:07:54.308Z,54.14
2018-05-31T17:11:00.120Z,54.62
2018-05-31T17:14:05.325Z,54.44
2018-05-31T17:17:10.937Z,54.84
2018-05-31T17:20:16.960Z,54.42
2018-05-31T17:23:23.104Z,54.14
2018-05-31T17:26:29.215Z,54.37
2018-05-31T17:29:36.591Z,54.93
2018-05-31T17:32:45.265Z,55.27
2018-05-31T17:35:50.487Z,54.99
2018-05-31T17:38:55.696Z,55.48
2018-05-31T17:42:01.059Z,55.04
2018-05-31T17:45:07.388Z,55.16
2018-05-31T17:48:12.589Z,55.22
2018-05-31T17:51:17.808Z,55.45
2018-05-31T17:54:23.022Z,55.65
2018-05-31T17:57:28.229Z,56.23
2018-05-31T18:00:34.721Z,56.21
2018-05-31T18:03:39.939Z,56.37
2018-05-31T18:06:45.772Z,56.54
2018-05-31T18:09:51.698Z,56.55
2018-05-31T18:12:57.704Z,56.69
2018-05-31T18:16:03.640Z,56.93
2018-05-31T18:19:09.463Z,57.09
2018-05-31T18:22:15.436Z,57.14
2018-05-31T18:25:20.640Z,57.23
2018-05-31T18:28:26.375Z,57.43
2018-05-31T18:31:31.580Z,57.55
2018-05-31T18:34:37.294Z,57.67
2018-05-31T18:37:43.285Z,57.79
2018-05-31T18:40:49.229Z,57.91
2018-05-31T18:43:54.866Z,57.96
2018-05-31T18:47:01.172Z,57.93
2018-05-31T18:50:07.205Z,58.40
2018-05-31T18:53:13.142Z,58.36
2018-05-31T18:56:19.080Z,58.43
2018-05-31T18:59:25.028Z,58.58
2018-05-31T19:02:31.141Z,58.74
2018-05-31T19:05:37.154Z,58.67
2018-05-31T19:08:43.165Z,58.93
2018-05-31T19:11:48.984Z,59.10
2018-05-31T19:14:54.477Z,59.27
2018-05-31T19:18:00.341Z,59.51
2018-05-31T19:21:05.407Z,59.65
2018-05-31T19:24:16.239Z,59.77
2018-05-31T19:27:22.218Z,59.88
2018-05-31T19:30:33.407Z,60.35
2018-05-31T19:33:38.322Z,60.05
2018-05-31T19:36:49.266Z,60.12
2018-05-31T19:39:55.137Z,60.44
2018-05-31T19:43:06.176Z,60.25
2018-05-31T19:46:12.005Z,60.85
2018-05-31T19:49:16.959Z,60.96
2018-05-31T19:52:27.597Z,61.45
2018-05-31T19:55:33.521Z,61.49
2018-05-31T19:58:44.929Z,61.38
2018-05-31T20:01:55.236Z,61.83
2018-05-31T20:05:00.154Z,61.59
2018-05-31T20:08:05.790Z,62.00
2018-05-31T20:11:11.022Z,61.87
2018-05-31T20:14:17.101Z,62.24
2018-05-31T20:17:22.889Z,62.34
2018-05-31T20:20:28.845Z,62.17
2018-05-31T20:23:34.673Z,62.28
2018-05-31T20:26:40.282Z,62.34
2018-05-31T20:29:46.314Z,62.53
2018-05-31T20:32:52.062Z,62.92
2018-05-31T20:35:57.316Z,62.69
2018-05-31T20:39:02.916Z,63.35
2018-05-31T20:42:08.252Z,63.40
2018-05-31T20:45:13.446Z,62.86
2018-05-31T20:48:18.650Z,62.65
2018-05-31T20:51:23.581Z,62.89
2018-05-31T20:54:29.376Z,62.75
2018-05-31T20:57:35.481Z,63.05
2018-05-31T21:00:40.821Z,62.99
2018-05-31T21:03:46.036Z,63.05
2018-05-31T21:06:51.932Z,63.71
2018-05-31T21:09:57.554Z,63.53
2018-05-31T21:13:03.715Z,63.63
2018-05-31T21:16:09.452Z,63.23
2018-05-31T21:19:14.437Z,63.07
2018-05-31T21:22:20.315Z,62.87
2018-05-31T21:25:26.203Z,62.97
2018-05-31T21:28:31.141Z,63.05
2018-05-31T21:31:37.340Z,63.07
2018-05-31T21:34:42.335Z,63.80
2018-05-31T21:37:47.273Z,63.29
2018-05-31T21:40:53.115Z,63.39
2018-05-31T21:43:58.067Z,63.56
2018-05-31T21:47:03.716Z,63.66
2018-05-31T21:50:08.924Z,64.02
2018-05-31T21:53:15.107Z,63.82
2018-05-31T21:56:21.026Z,63.72
2018-05-31T21:59:26.665Z,63.98
2018-05-31T22:02:32.024Z,64.04
2018-05-31T22:05:36.972Z,64.25
2018-05-31T22:08:43.104Z,64.71
2018-05-31T22:11:48.636Z,64.16
2018-05-31T22:14:53.591Z,64.84
2018-05-31T22:17:58.515Z,64.58
2018-05-31T22:21:03.443Z,64.68
2018-05-31T22:24:08.132Z,65.12
2018-05-31T22:27:14.276Z,65.44
2018-05-31T22:30:20.227Z,64.50
2018-05-31T22:33:25.411Z,64.61
2018-05-31T22:36:31.249Z,65.18
2018-05-31T22:39:36.775Z,64.92
2018-05-31T22:42:41.708Z,65.39
2018-05-31T22:45:47.541Z,65.13
2018-05-31T22:48:52.783Z,65.55
2018-05-31T22:51:58.889Z,65.38
2018-05-31T22:55:04.132Z,65.78
2018-05-31T22:58:09.332Z,66.25
2018-05-31T23:01:15.169Z,65.98
2018-05-31T23:04:20.356Z,66.09
2018-05-31T23:07:25.293Z,65.68
2018-05-31T23:10:30.514Z,65.92
2018-05-31T23:13:35.446Z,65.53
2018-05-31T23:16:41.040Z,65.80
2018-05-31T23:19:46.892Z,65.53
2018-05-31T23:22:51.864Z,65.69
2018-05-31T23:25:58.734Z,66.12
2018-05-31T23:29:03.937Z,65.64
2018-05-31T23:32:09.708Z,65.55
2018-05-31T23:35:14.628Z,66.14
2018-05-31T23:38:20.539Z,66.38
2018-05-31T23:41:26.650Z,65.85
2018-05-31T23:44:32.786Z,65.91
2018-05-31T23:47:38.887Z,66.12
2018-05-31T23:50:44.517Z,65.96
2018-05-31T23:53:49.713Z,65.94
2018-05-31T23:56:54.929Z,65.88
